Lentner, Missouri
Current Conditions -  °F | °C
As of 5:55 PM on Saturday 20 Dec 2014 (Local Time) from KIRK Reporting Station
Haze Haze  
Wind Chill: 32°   Ceiling: 600
Heat Index: 37°   Visibility: 5mi
Dew Point: 36°   Wind: 7mph
Humidity: 96%   Direction: 200°SSW
Pressure: 30.18"   Gusts: NA
Location:  39.72°N, 92.15°W
Report Text: KIRK 202355Z AUTO 20006KT 5SM BR OVC006 03/02 A3018 RMK AO2 SLP231 T00280022 10033 20022 51010
Loading
Personal Weather Stations






























Interactive Weather Map New forecast layout! Learn more

10-Day Weather Forecast

Advertisements
Track Severe Weather on mobile